< < Back
Terminal Aerodrome Forecast


Current Version              Previous Versions:   1  2  3  4  5  6  7  8  9  

Terminal Aerodrome Forecast

570
FTUS42 KFFC 192300
TAFFTY
TAF
KFTY 192333Z 2000/2024 04010KT P6SM -DZ VCSH SCT015 OVC035
     FM200700 05007KT P6SM OVC015
     FM201100 05010KT P6SM BKN045
     FM202000 06007KT P6SM SCT060=



Latest METAR

947
SAUS70 KWBC 200300 RRH
MTRFTY
METAR KFTY 200253Z 06016G28KT 10SM BKN060 BKN100 14/06 A3019 RMK AO2 PK
WND 05028/0251 SLP219 60000 T01390056 51015


USA.gov is the U.S. government's official web portal to all federal, state and local government web resources and services.